createdAt,value
2023-03-21T00:02:26.314Z,20.9
2023-03-21T00:08:38.624Z,20.9
2023-03-21T00:14:56.978Z,20.9
2023-03-21T00:21:35.861Z,20.9
2023-03-21T00:28:24.327Z,21
2023-03-21T00:34:32.074Z,20.9
2023-03-21T00:41:59.137Z,21
2023-03-21T00:48:15.614Z,21
2023-03-21T00:54:25.004Z,21
2023-03-21T01:00:15.025Z,21
2023-03-21T01:06:20.954Z,21.1
2023-03-21T01:12:15.984Z,21.1
2023-03-21T01:18:19.461Z,21.1
2023-03-21T01:24:05.612Z,21.1
2023-03-21T01:30:19.024Z,21.1
2023-03-21T01:36:26.840Z,21.1
2023-03-21T02:23:01.615Z,21.2
2023-03-21T02:28:45.809Z,21.2
2023-03-21T02:35:06.463Z,21.2
2023-03-21T02:41:39.985Z,21.2
2023-03-21T02:48:23.970Z,21.2
2023-03-21T02:55:21.046Z,21.2
2023-03-21T03:01:07.128Z,21.3
2023-03-21T03:06:51.849Z,21.3
2023-03-21T03:12:42.955Z,21.3
2023-03-21T03:19:14.512Z,21.3
2023-03-21T03:24:48.241Z,21.3
2023-03-21T03:31:08.425Z,21.3
2023-03-21T03:37:21.218Z,21.3
2023-03-21T03:43:17.357Z,21.3
2023-03-21T03:49:20.648Z,21.3
2023-03-21T03:55:30.531Z,21.3
2023-03-21T04:01:37.118Z,21.3
2023-03-21T04:07:53.158Z,21.3
2023-03-21T04:13:43.388Z,21.3
2023-03-21T04:19:44.527Z,21.3
2023-03-21T04:25:56.171Z,21.4
2023-03-21T04:32:15.494Z,21.4
2023-03-21T04:38:08.688Z,21.4
2023-03-21T04:44:00.451Z,21.4
2023-03-21T04:49:53.055Z,21.4
2023-03-21T04:55:45.329Z,21.4
2023-03-21T05:01:37.248Z,21.4
2023-03-21T05:07:31.400Z,21.5
2023-03-21T05:13:26.871Z,21.4
2023-03-21T05:19:18.369Z,21.4
2023-03-21T05:25:10.604Z,21.3
2023-03-21T05:31:03.574Z,21.3
2023-03-21T05:36:40.759Z,21.2
2023-03-21T05:42:34.677Z,20.3
2023-03-21T05:48:28.982Z,19.6
2023-03-21T05:54:04.940Z,19.3
2023-03-21T05:59:57.630Z,19.1
2023-03-21T06:05:50.834Z,18.9
2023-03-21T06:11:42.345Z,18.8
2023-03-21T06:17:35.810Z,18.8
2023-03-21T06:23:13.246Z,18.9
2023-03-21T06:28:33.693Z,19
2023-03-21T06:34:26.973Z,18.9
2023-03-21T06:40:19.890Z,18.9
2023-03-21T06:46:12.646Z,18.8
2023-03-21T06:51:50.996Z,18.5
2023-03-21T06:57:28.658Z,17.9
2023-03-21T07:03:07.473Z,20.6
2023-03-21T07:09:00.943Z,18.8
2023-03-21T07:14:38.437Z,18.4
2023-03-21T07:20:31.291Z,18.2
2023-03-21T07:26:30.229Z,18.1
2023-03-21T07:32:07.520Z,18
2023-03-21T07:37:43.991Z,22.5
2023-03-21T07:43:21.272Z,21.7
2023-03-21T07:49:19.246Z,21.9
2023-03-21T07:55:11.508Z,22.6
2023-03-21T08:01:04.687Z,23.3
2023-03-21T08:06:59.419Z,23.9
2023-03-21T08:12:54.806Z,24.4
2023-03-21T08:18:47.736Z,24.9
2023-03-21T08:24:40.587Z,25.8
2023-03-21T08:30:18.152Z,26.2
2023-03-21T08:36:14.303Z,26.3
2023-03-21T08:42:08.451Z,26.4
2023-03-21T08:47:46.309Z,26.6
2023-03-21T08:53:40.256Z,26.8
2023-03-21T08:59:33.999Z,26.9
2023-03-21T09:05:28.111Z,27.3
2023-03-21T09:11:42.150Z,27.5
2023-03-21T09:17:22.026Z,27.6
2023-03-21T09:23:15.909Z,27.7
2023-03-21T09:29:09.218Z,28
2023-03-21T09:34:46.421Z,28.3
2023-03-21T09:40:38.592Z,28.6
2023-03-21T09:46:32.460Z,29.1
2023-03-21T09:52:44.187Z,29.3
2023-03-21T09:58:36.758Z,29.4
2023-03-21T10:04:30.953Z,29.7
2023-03-21T10:10:25.161Z,30.1
2023-03-21T10:16:20.531Z,30.7
2023-03-21T10:22:40.985Z,31.8
2023-03-21T10:28:46.285Z,33.8
2023-03-21T10:34:44.218Z,35.9
2023-03-21T10:40:23.111Z,37.6
2023-03-21T10:46:16.877Z,38.7
2023-03-21T10:52:36.965Z,39.3
2023-03-21T10:58:30.122Z,40
2023-03-21T11:04:08.824Z,40.9
2023-03-21T11:09:46.428Z,41.9
2023-03-21T11:15:49.947Z,42.6
2023-03-21T11:21:29.930Z,43.1
2023-03-21T11:27:22.808Z,43.6
2023-03-21T11:33:15.830Z,44.1
2023-03-21T11:39:09.211Z,44.7
2023-03-21T11:45:02.910Z,45.8
2023-03-21T11:50:46.128Z,45.5
2023-03-21T11:56:39.407Z,45.5
2023-03-21T12:02:44.349Z,45.7
2023-03-21T12:08:51.379Z,45.6
2023-03-21T12:14:52.367Z,45.6
2023-03-21T12:20:45.565Z,45.4
2023-03-21T12:26:39.626Z,45.1
2023-03-21T12:32:47.140Z,44.9
2023-03-21T12:38:42.421Z,44.6
2023-03-21T12:44:35.812Z,44.5
2023-03-21T12:50:51.046Z,44.5
2023-03-21T12:56:13.765Z,44.5
2023-03-21T13:01:48.521Z,44.5
2023-03-21T13:07:54.729Z,44.2
2023-03-21T13:13:37.386Z,43.9
2023-03-21T13:19:38.359Z,43.8
2023-03-21T13:25:32.240Z,43.4
2023-03-21T13:31:09.904Z,43
2023-03-21T13:37:12.893Z,42.7
2023-03-21T13:43:07.296Z,42.3
2023-03-21T13:49:25.228Z,41.9
2023-03-21T13:55:18.497Z,41.5
2023-03-21T14:01:13.276Z,41.2
2023-03-21T14:07:16.936Z,40.7
2023-03-21T14:13:29.770Z,40.2
2023-03-21T14:20:00.292Z,39.8
2023-03-21T14:26:04.256Z,39.3
2023-03-21T14:32:15.569Z,36.4
2023-03-21T14:37:48.090Z,35
2023-03-21T14:43:41.337Z,33.9
2023-03-21T14:49:43.040Z,33
2023-03-21T14:55:20.524Z,32.4
2023-03-21T15:00:58.315Z,31.9
2023-03-21T15:06:52.886Z,31.4
2023-03-21T15:12:43.687Z,31
2023-03-21T15:18:37.286Z,30.7
2023-03-21T15:24:30.612Z,30.4
2023-03-21T15:30:25.477Z,30.2
2023-03-21T15:36:03.241Z,30
2023-03-21T15:41:40.891Z,29.8
2023-03-21T15:47:06.223Z,29.6
2023-03-21T15:52:45.412Z,29.4
2023-03-21T15:58:09.077Z,29.3
2023-03-21T16:03:47.775Z,29.1
2023-03-21T16:09:40.456Z,29
2023-03-21T16:15:33.222Z,28.9
2023-03-21T16:21:26.090Z,28.8
2023-03-21T16:27:18.874Z,28.4
2023-03-21T16:33:12.087Z,28.1
2023-03-21T16:38:49.275Z,27.9
2023-03-21T16:44:27.455Z,27.8
2023-03-21T16:50:05.202Z,27.7
2023-03-21T16:55:42.849Z,27.6
2023-03-21T17:01:37.399Z,27.5
2023-03-21T17:07:32.019Z,27.4
2023-03-21T17:13:09.350Z,27.4
2023-03-21T17:19:02.594Z,27.3
2023-03-21T17:24:42.868Z,27.3
2023-03-21T17:30:35.666Z,27.2
2023-03-21T17:36:28.686Z,27.1
2023-03-21T17:42:21.116Z,26.9
2023-03-21T17:47:59.539Z,26.7
2023-03-21T17:53:39.923Z,26.4
2023-03-21T17:59:02.201Z,25.4
2023-03-21T18:04:57.677Z,24.7
2023-03-21T18:11:34.547Z,24.3
2023-03-21T18:17:36.274Z,23.9
2023-03-21T18:23:41.110Z,23.8
2023-03-21T18:31:57.668Z,23.6
2023-03-21T18:38:05.202Z,23.4
2023-03-21T18:45:11.500Z,23.4
2023-03-21T18:51:54.904Z,23.4
2023-03-21T18:59:04.070Z,23.3
2023-03-21T19:05:28.346Z,23.3
2023-03-21T19:11:56.024Z,23.2
2023-03-21T19:19:26.768Z,23
2023-03-21T19:25:56.873Z,22.8
2023-03-21T19:32:13.338Z,22.7
2023-03-21T19:38:31.059Z,22.6
2023-03-21T19:45:01.074Z,22.6
2023-03-21T19:52:04.029Z,22.5
2023-03-21T19:58:10.279Z,22.5
2023-03-21T20:04:30.560Z,22.5
2023-03-21T20:11:14.159Z,22.4
2023-03-21T20:17:24.096Z,22.4
2023-03-21T20:23:56.095Z,22.4
2023-03-21T20:31:14.027Z,22.4
2023-03-21T20:38:20.169Z,22.1
2023-03-21T20:45:38.055Z,21.8
2023-03-21T20:53:06.755Z,21.6
2023-03-21T20:59:32.789Z,21.5
2023-03-21T21:06:03.054Z,21.5
2023-03-21T21:12:46.785Z,21.4
2023-03-21T21:18:54.144Z,21.4
2023-03-21T21:24:57.011Z,21.4
2023-03-21T21:30:50.522Z,21.4
2023-03-21T21:36:43.575Z,21.4
2023-03-21T21:42:35.825Z,21.4
2023-03-21T21:48:13.942Z,21.4
2023-03-21T21:54:06.777Z,21.3
2023-03-21T21:59:44.383Z,21.3
2023-03-21T22:05:37.286Z,21.3
2023-03-21T22:11:02.200Z,21.3
2023-03-21T22:16:39.872Z,21.3
2023-03-21T22:22:21.446Z,21.3
2023-03-21T22:28:15.007Z,21.3
2023-03-21T22:34:15.876Z,21.3
2023-03-21T22:39:52.704Z,21.3
2023-03-21T22:45:45.714Z,21.3
2023-03-21T22:51:22.001Z,21.3
2023-03-21T22:57:15.180Z,21.3
2023-03-21T23:03:08.496Z,21.3
2023-03-21T23:08:46.500Z,21.3
2023-03-21T23:14:39.600Z,21.3
2023-03-21T23:20:01.250Z,21.3
2023-03-21T23:25:57.619Z,21.3
2023-03-21T23:31:34.557Z,21.3
2023-03-21T23:37:28.184Z,21.3
2023-03-21T23:43:19.991Z,21.3
2023-03-21T23:49:12.821Z,21.3
2023-03-21T23:55:06.705Z,21.3
